createdAt,value
2022-08-28T00:00:45.107Z,49.19
2022-08-28T00:03:13.527Z,49.19
2022-08-28T00:05:43.850Z,49.20
2022-08-28T00:08:13.576Z,50.29
2022-08-28T00:10:41.920Z,49.20
2022-08-28T00:13:10.911Z,49.91
2022-08-28T00:15:38.653Z,51.21
2022-08-28T00:18:07.296Z,50.76
2022-08-28T00:20:35.722Z,50.03
2022-08-28T00:23:05.046Z,50.27
2022-08-28T00:25:33.709Z,53.95
2022-08-28T00:28:08.602Z,54.37
2022-08-28T00:30:48.506Z,54.18
2022-08-28T00:33:19.994Z,53.48
2022-08-28T00:35:51.066Z,52.53
2022-08-28T00:38:19.968Z,51.94
2022-08-28T00:40:51.063Z,51.89
2022-08-28T00:43:26.946Z,52.13
2022-08-28T00:45:54.775Z,52.51
2022-08-28T00:48:23.683Z,52.10
2022-08-28T00:50:51.479Z,52.48
2022-08-28T00:53:20.121Z,53.62
2022-08-28T00:55:48.810Z,55.31
2022-08-28T00:58:16.824Z,56.10
2022-08-28T01:00:44.642Z,57.48
2022-08-28T01:03:12.325Z,58.79
2022-08-28T01:05:42.918Z,59.59
2022-08-28T01:08:10.918Z,61.11
2022-08-28T01:10:40.591Z,62.07
2022-08-28T01:13:09.898Z,62.60
2022-08-28T01:15:38.665Z,62.92
2022-08-28T01:18:09.362Z,63.96
2022-08-28T01:20:40.746Z,65.30
2022-08-28T01:23:41.844Z,66.21
2022-08-28T01:26:11.015Z,66.98
2022-08-28T01:28:44.344Z,67.43
2022-08-28T01:31:14.295Z,67.72
2022-08-28T01:33:43.762Z,67.75
2022-08-28T01:36:12.106Z,68.47
2022-08-28T01:38:41.260Z,68.51
2022-08-28T01:41:09.600Z,68.64
2022-08-28T01:43:42.795Z,69.03
2022-08-28T01:46:11.374Z,69.51
2022-08-28T01:48:42.034Z,69.97
2022-08-28T01:51:35.231Z,69.79
2022-08-28T01:54:09.961Z,69.80
2022-08-28T01:56:38.404Z,70.19
2022-08-28T01:59:08.426Z,70.36
2022-08-28T02:01:37.071Z,70.52
2022-08-28T02:04:05.692Z,70.62
2022-08-28T02:06:33.508Z,70.35
2022-08-28T02:09:01.257Z,70.31
2022-08-28T02:11:31.570Z,70.81
2022-08-28T02:13:59.999Z,70.74
2022-08-28T02:16:28.926Z,70.14
2022-08-28T02:18:57.126Z,69.80
2022-08-28T02:21:27.965Z,69.25
2022-08-28T02:24:01.751Z,69.03
2022-08-28T02:26:30.831Z,69.20
2022-08-28T02:28:58.943Z,69.30
2022-08-28T02:31:29.874Z,69.29
2022-08-28T02:33:58.758Z,69.66
2022-08-28T02:36:26.567Z,70.00
2022-08-28T02:38:57.566Z,70.96
2022-08-28T02:41:26.204Z,71.20
2022-08-28T02:43:56.833Z,71.56
2022-08-28T02:46:24.592Z,71.32
2022-08-28T02:48:52.757Z,70.21
2022-08-28T02:51:20.800Z,70.16
2022-08-28T02:53:48.367Z,69.84
2022-08-28T02:56:19.126Z,70.07
2022-08-28T02:58:47.793Z,70.03
2022-08-28T03:01:15.967Z,69.73
2022-08-28T03:03:43.760Z,70.65
2022-08-28T03:06:12.053Z,70.83
2022-08-28T03:08:47.051Z,70.57
2022-08-28T03:11:14.953Z,70.72
2022-08-28T03:13:42.480Z,70.57
2022-08-28T03:16:10.273Z,70.84
2022-08-28T03:18:40.644Z,71.05
2022-08-28T03:21:11.930Z,70.73
2022-08-28T03:23:40.061Z,70.63
2022-08-28T03:26:13.228Z,70.22
2022-08-28T03:28:50.525Z,71.34
2022-08-28T03:31:25.225Z,71.60
2022-08-28T03:33:54.322Z,71.61
2022-08-28T03:36:24.676Z,71.37
2022-08-28T03:38:56.607Z,71.85
2022-08-28T03:41:29.439Z,72.54
2022-08-28T03:43:58.298Z,73.33
2022-08-28T03:46:27.289Z,73.18
2022-08-28T03:48:56.760Z,73.54
2022-08-28T03:51:29.547Z,73.72
2022-08-28T03:53:58.926Z,74.05
2022-08-28T03:56:28.088Z,74.36
2022-08-28T04:01:37.508Z,74.29
2022-08-28T04:04:05.916Z,74.57
2022-08-28T04:06:33.419Z,74.64
2022-08-28T04:09:04.004Z,74.88
2022-08-28T04:11:32.150Z,75.19
2022-08-28T04:13:59.904Z,75.19
2022-08-28T04:16:28.851Z,74.97
2022-08-28T04:18:58.285Z,75.21
2022-08-28T04:21:28.934Z,74.49
2022-08-28T04:23:56.550Z,74.54
2022-08-28T04:26:25.733Z,74.50
2022-08-28T04:28:55.958Z,74.61
2022-08-28T04:31:32.180Z,74.88
2022-08-28T04:34:05.154Z,74.87
2022-08-28T04:36:33.517Z,74.97
2022-08-28T04:39:02.011Z,74.58
2022-08-28T04:41:29.746Z,74.23
2022-08-28T04:43:58.270Z,74.51
2022-08-28T04:46:31.261Z,74.66
2022-08-28T04:49:02.815Z,74.37
2022-08-28T04:51:30.629Z,74.24
2022-08-28T04:53:58.637Z,73.79
2022-08-28T04:56:29.183Z,73.32
2022-08-28T04:59:01.122Z,72.88
2022-08-28T05:01:34.339Z,72.18
2022-08-28T05:04:04.267Z,71.89
2022-08-28T05:06:34.772Z,71.45
2022-08-28T05:09:03.925Z,70.92
2022-08-28T05:11:34.305Z,70.80
2022-08-28T05:14:09.606Z,70.55
2022-08-28T05:16:54.032Z,69.84
2022-08-28T05:19:21.943Z,69.57
2022-08-28T05:21:49.590Z,69.38
2022-08-28T05:24:17.478Z,68.90
2022-08-28T05:26:48.280Z,68.40
2022-08-28T05:29:17.097Z,68.04
2022-08-28T05:31:46.396Z,67.87
2022-08-28T05:34:15.081Z,68.14
2022-08-28T05:36:42.608Z,67.32
2022-08-28T05:39:13.560Z,67.26
2022-08-28T05:41:43.066Z,66.77
2022-08-28T05:44:18.944Z,66.46
2022-08-28T05:46:53.081Z,66.33
2022-08-28T05:49:21.017Z,66.00
2022-08-28T05:51:49.298Z,65.51
2022-08-28T05:54:17.923Z,65.48
2022-08-28T05:56:49.144Z,65.17
2022-08-28T05:59:17.143Z,64.45
2022-08-28T06:01:48.059Z,63.71
2022-08-28T06:04:19.676Z,63.06
2022-08-28T06:06:47.204Z,62.76
2022-08-28T06:09:29.124Z,62.39
2022-08-28T06:12:00.165Z,62.51
2022-08-28T06:14:27.984Z,61.33
2022-08-28T06:16:56.564Z,60.76
2022-08-28T06:19:26.939Z,60.22
2022-08-28T06:21:56.970Z,59.29
2022-08-28T06:24:26.337Z,59.30
2022-08-28T06:26:58.053Z,58.12
2022-08-28T06:29:29.974Z,57.04
2022-08-28T06:31:59.776Z,56.91
2022-08-28T06:34:30.174Z,56.52
2022-08-28T06:36:57.824Z,55.14
2022-08-28T06:39:28.575Z,54.92
2022-08-28T06:41:58.735Z,54.23
2022-08-28T06:44:26.929Z,54.24
2022-08-28T06:46:55.046Z,53.74
2022-08-28T06:49:22.774Z,53.66
2022-08-28T06:51:50.318Z,53.64
2022-08-28T06:54:22.957Z,51.58
2022-08-28T06:56:52.064Z,51.21
2022-08-28T06:59:24.068Z,50.99
2022-08-28T07:01:53.316Z,50.78
2022-08-28T07:04:23.937Z,50.50
2022-08-28T07:06:54.669Z,50.89
2022-08-28T07:09:23.869Z,49.56
2022-08-28T07:11:53.668Z,49.56
2022-08-28T07:14:21.546Z,50.55
2022-08-28T07:16:50.543Z,49.28
2022-08-28T07:19:20.592Z,49.86
2022-08-28T07:21:48.199Z,49.61
2022-08-28T07:24:16.941Z,49.21
2022-08-28T07:26:46.976Z,48.65
2022-08-28T07:29:14.855Z,48.42
2022-08-28T07:31:51.511Z,48.01
2022-08-28T07:34:22.050Z,47.28
2022-08-28T07:36:55.364Z,47.11
2022-08-28T07:39:23.145Z,47.72
2022-08-28T07:41:50.710Z,46.53
2022-08-28T07:44:18.496Z,48.18
2022-08-28T07:46:46.185Z,47.66
2022-08-28T07:49:16.831Z,47.38
2022-08-28T07:51:46.945Z,46.30
2022-08-28T07:54:17.980Z,45.44
2022-08-28T07:56:47.159Z,45.38
2022-08-28T07:59:19.134Z,46.11
2022-08-28T08:01:49.073Z,45.84
2022-08-28T08:04:18.113Z,44.86
2022-08-28T08:06:46.340Z,44.95
2022-08-28T08:09:16.340Z,45.36
2022-08-28T08:11:44.089Z,44.15
2022-08-28T08:14:11.611Z,44.21
2022-08-28T08:16:42.122Z,43.78
2022-08-28T08:19:10.736Z,44.50
2022-08-28T08:21:38.431Z,44.20
2022-08-28T08:24:06.085Z,42.07
2022-08-28T08:26:34.119Z,41.84
2022-08-28T08:29:01.954Z,42.58
2022-08-28T08:31:33.414Z,41.78
2022-08-28T08:34:04.485Z,39.99
2022-08-28T08:36:34.659Z,39.98
2022-08-28T08:39:02.289Z,38.79
2022-08-28T08:41:42.298Z,38.45
2022-08-28T08:44:48.566Z,38.21
2022-08-28T08:47:19.125Z,38.39
2022-08-28T08:50:01.874Z,36.40
2022-08-28T08:52:50.568Z,37.72
2022-08-28T08:55:26.989Z,36.52
2022-08-28T08:58:04.600Z,37.36
2022-08-28T09:00:36.965Z,36.47
2022-08-28T09:03:08.910Z,36.17
2022-08-28T09:05:49.623Z,37.44
2022-08-28T09:08:40.097Z,36.37
2022-08-28T09:11:18.495Z,35.24
2022-08-28T09:13:46.026Z,36.71
2022-08-28T09:16:36.141Z,36.55
2022-08-28T09:19:05.197Z,36.19
2022-08-28T09:21:34.788Z,35.37
2022-08-28T09:24:05.930Z,36.42
2022-08-28T09:26:37.369Z,36.17
2022-08-28T09:29:14.605Z,36.02
2022-08-28T09:31:42.438Z,35.00
2022-08-28T09:34:38.160Z,34.48
2022-08-28T09:37:07.373Z,35.46
2022-08-28T09:39:34.748Z,34.76
2022-08-28T09:42:14.572Z,35.25
2022-08-28T09:44:51.957Z,35.39
2022-08-28T09:47:40.558Z,34.80
2022-08-28T09:50:23.413Z,36.14
2022-08-28T09:52:54.866Z,35.80
2022-08-28T09:55:32.848Z,34.74
2022-08-28T09:58:00.525Z,35.31
2022-08-28T10:00:31.616Z,35.22
2022-08-28T10:03:34.137Z,35.27
2022-08-28T10:06:11.568Z,34.86
2022-08-28T10:08:54.945Z,34.50
2022-08-28T10:11:38.224Z,34.21
2022-08-28T10:14:47.656Z,34.60
2022-08-28T10:17:30.020Z,35.74
2022-08-28T10:20:09.642Z,33.77
2022-08-28T10:22:43.819Z,34.01
2022-08-28T10:25:45.459Z,33.68
2022-08-28T10:28:32.411Z,33.45
2022-08-28T10:31:02.678Z,32.69
2022-08-28T10:33:57.418Z,32.97
2022-08-28T10:36:34.479Z,33.53
2022-08-28T10:39:41.067Z,33.06
2022-08-28T10:42:10.851Z,31.66
2022-08-28T10:44:38.220Z,32.63
2022-08-28T10:47:05.793Z,32.74
2022-08-28T10:49:44.735Z,30.90
2022-08-28T10:52:15.842Z,32.95
2022-08-28T10:54:53.473Z,32.89
2022-08-28T10:58:03.888Z,31.09
2022-08-28T11:00:31.728Z,31.25
2022-08-28T11:03:32.983Z,31.05
2022-08-28T11:06:10.046Z,31.32
2022-08-28T11:08:38.032Z,31.76
2022-08-28T11:11:13.083Z,32.03
2022-08-28T11:13:49.452Z,31.65
2022-08-28T11:16:22.067Z,29.80
2022-08-28T11:18:59.643Z,31.34
2022-08-28T11:21:36.748Z,30.16
2022-08-28T11:24:24.216Z,31.75
2022-08-28T11:27:27.517Z,30.62
2022-08-28T11:29:59.025Z,31.73
2022-08-28T11:32:34.361Z,31.77
2022-08-28T11:35:06.145Z,31.46
2022-08-28T11:37:44.032Z,32.27
2022-08-28T11:40:17.958Z,31.87
2022-08-28T11:42:46.108Z,32.31
2022-08-28T11:45:22.368Z,31.20
2022-08-28T11:47:51.441Z,31.63
2022-08-28T11:50:28.327Z,31.58
2022-08-28T11:53:18.542Z,31.88
2022-08-28T11:56:31.193Z,32.59
2022-08-28T11:59:35.121Z,31.85
2022-08-28T12:02:41.123Z,31.43
2022-08-28T12:05:32.297Z,31.94
2022-08-28T12:08:01.384Z,31.85
2022-08-28T12:10:28.975Z,32.21
2022-08-28T12:12:58.261Z,31.83
2022-08-28T12:15:28.696Z,31.71
2022-08-28T12:18:04.079Z,33.19
2022-08-28T12:20:53.044Z,32.97
2022-08-28T12:23:23.605Z,32.41
2022-08-28T12:25:59.780Z,31.67
2022-08-28T12:28:37.548Z,31.54
2022-08-28T12:31:04.871Z,32.57
2022-08-28T12:33:36.639Z,31.79
2022-08-28T12:36:06.245Z,32.06
2022-08-28T12:38:37.820Z,31.67
2022-08-28T12:41:14.486Z,31.84
2022-08-28T12:43:47.275Z,32.17
2022-08-28T12:46:37.322Z,32.42
2022-08-28T12:49:28.191Z,31.83
2022-08-28T12:52:11.724Z,31.63
2022-08-28T12:54:45.889Z,31.55
2022-08-28T12:57:15.873Z,32.66
2022-08-28T12:59:45.639Z,31.67
2022-08-28T13:02:19.006Z,30.93
2022-08-28T13:04:54.135Z,31.71
2022-08-28T13:07:32.989Z,30.77
2022-08-28T13:10:06.171Z,30.36
2022-08-28T13:12:56.125Z,30.11
2022-08-28T13:15:50.763Z,29.88
2022-08-28T13:18:38.802Z,29.10
2022-08-28T13:21:32.853Z,30.11
2022-08-28T13:24:21.818Z,30.01
2022-08-28T13:26:51.561Z,30.68
2022-08-28T13:29:22.236Z,30.17
2022-08-28T13:32:00.753Z,29.94
2022-08-28T13:34:31.502Z,29.85
2022-08-28T13:37:00.874Z,30.69
2022-08-28T13:39:31.781Z,31.45
2022-08-28T13:42:05.453Z,29.96
2022-08-28T13:44:40.540Z,30.75
2022-08-28T13:47:07.796Z,30.51
2022-08-28T13:49:35.765Z,30.43
2022-08-28T13:52:21.414Z,31.90
2022-08-28T13:55:09.346Z,32.73
2022-08-28T13:57:58.330Z,32.87
2022-08-28T14:00:48.598Z,32.97
2022-08-28T14:03:36.594Z,33.29
2022-08-28T14:06:24.126Z,35.05
2022-08-28T14:09:19.886Z,35.48
2022-08-28T14:12:09.747Z,33.76
2022-08-28T14:14:57.586Z,33.17
2022-08-28T14:17:45.764Z,32.95
2022-08-28T14:20:33.914Z,32.28
2022-08-28T14:23:21.539Z,33.04
2022-08-28T14:26:09.388Z,33.42
2022-08-28T14:29:05.710Z,33.61
2022-08-28T14:31:53.606Z,33.21
2022-08-28T14:34:41.213Z,32.49
2022-08-28T14:37:29.063Z,32.49
2022-08-28T14:40:16.700Z,32.08
2022-08-28T14:43:06.292Z,32.75
2022-08-28T14:45:53.931Z,32.61
2022-08-28T14:48:41.908Z,32.66
2022-08-28T14:51:31.664Z,33.97
2022-08-28T14:54:21.824Z,33.04
2022-08-28T14:57:09.416Z,32.13
2022-08-28T14:59:57.263Z,32.42
2022-08-28T15:02:44.815Z,32.27
2022-08-28T15:05:32.652Z,33.42
2022-08-28T15:08:20.211Z,34.02
2022-08-28T15:11:10.187Z,34.42
2022-08-28T15:13:57.613Z,34.86
2022-08-28T15:16:47.688Z,34.92
2022-08-28T15:19:35.319Z,35.04
2022-08-28T15:22:27.295Z,35.04
2022-08-28T15:25:15.160Z,35.00
2022-08-28T15:28:03.477Z,35.96
2022-08-28T15:30:51.043Z,36.45
2022-08-28T15:33:43.326Z,36.75
2022-08-28T15:36:35.755Z,37.47
2022-08-28T15:39:26.259Z,37.16
2022-08-28T15:42:14.310Z,37.67
2022-08-28T15:45:02.045Z,38.36
2022-08-28T15:47:49.605Z,38.55
2022-08-28T15:50:37.930Z,38.48
2022-08-28T15:53:27.209Z,38.38
2022-08-28T15:56:15.021Z,38.18
2022-08-28T15:59:02.565Z,39.01
2022-08-28T16:01:50.809Z,38.90
2022-08-28T16:04:38.733Z,39.01
2022-08-28T16:07:26.271Z,39.77
2022-08-28T16:10:14.445Z,39.85
2022-08-28T16:13:01.993Z,39.86
2022-08-28T16:15:49.846Z,40.09
2022-08-28T16:18:37.520Z,40.87
2022-08-28T16:21:34.408Z,40.90
2022-08-28T16:24:21.979Z,41.49
2022-08-28T16:27:13.200Z,41.35
2022-08-28T16:30:03.828Z,41.80
2022-08-28T16:32:51.888Z,41.77
2022-08-28T16:35:44.558Z,42.75
2022-08-28T16:38:38.757Z,42.70
2022-08-28T16:41:27.610Z,43.05
2022-08-28T16:44:23.982Z,43.29
2022-08-28T16:47:11.553Z,43.61
2022-08-28T16:50:01.112Z,43.73
2022-08-28T16:52:48.697Z,44.25
2022-08-28T16:55:36.982Z,44.47
2022-08-28T16:58:25.784Z,45.24
2022-08-28T17:01:13.750Z,45.87
2022-08-28T17:04:01.926Z,46.60
2022-08-28T17:06:49.826Z,46.66
2022-08-28T17:09:37.368Z,46.82
2022-08-28T17:12:25.227Z,46.87
2022-08-28T17:15:13.157Z,46.74
2022-08-28T17:18:01.040Z,46.38
2022-08-28T17:20:48.570Z,47.11
2022-08-28T17:23:36.436Z,47.08
2022-08-28T17:26:25.317Z,47.29
2022-08-28T17:29:13.165Z,47.43
2022-08-28T17:32:00.838Z,47.89
2022-08-28T17:34:48.921Z,48.42
2022-08-28T17:37:37.392Z,48.56
2022-08-28T17:40:25.321Z,48.88
2022-08-28T17:43:13.389Z,49.03
2022-08-28T17:46:01.819Z,49.00
2022-08-28T17:48:54.337Z,49.63
2022-08-28T17:51:44.562Z,49.58
2022-08-28T17:54:32.478Z,50.28
2022-08-28T17:57:20.359Z,50.08
2022-08-28T18:00:10.268Z,50.26
2022-08-28T18:02:59.267Z,50.47
2022-08-28T18:05:47.224Z,50.69
2022-08-28T18:08:34.801Z,51.55
2022-08-28T18:11:23.747Z,51.42
2022-08-28T18:14:11.578Z,51.45
2022-08-28T18:16:59.493Z,51.61
2022-08-28T18:19:47.119Z,51.90
2022-08-28T18:22:35.036Z,52.51
2022-08-28T18:25:22.666Z,52.48
2022-08-28T18:28:14.686Z,51.97
2022-08-28T18:30:54.196Z,52.91
2022-08-28T18:33:23.862Z,53.32
2022-08-28T18:35:52.756Z,53.24
2022-08-28T18:38:21.937Z,53.02
2022-08-28T18:40:49.646Z,53.33
2022-08-28T18:43:17.104Z,53.43
2022-08-28T18:45:44.564Z,53.71
2022-08-28T18:48:12.224Z,53.80
2022-08-28T18:50:43.226Z,54.23
2022-08-28T18:53:14.724Z,54.20
2022-08-28T18:55:42.287Z,54.77
2022-08-28T18:58:11.120Z,54.42
2022-08-28T19:00:43.720Z,54.51
2022-08-28T19:03:11.124Z,54.75
2022-08-28T19:05:38.844Z,54.75
2022-08-28T19:08:06.695Z,54.96
2022-08-28T19:10:35.349Z,55.03
2022-08-28T19:13:03.858Z,54.71
2022-08-28T19:15:32.505Z,55.19
2022-08-28T19:18:00.618Z,54.90
2022-08-28T19:20:28.787Z,55.07
2022-08-28T19:22:57.653Z,55.18
2022-08-28T19:25:29.273Z,54.83
2022-08-28T19:28:00.304Z,55.19
2022-08-28T19:30:30.481Z,55.36
2022-08-28T19:32:58.304Z,55.00
2022-08-28T19:35:25.733Z,55.38
2022-08-28T19:37:53.427Z,55.33
2022-08-28T19:40:21.317Z,55.51
2022-08-28T19:42:48.993Z,55.54
2022-08-28T19:45:16.800Z,55.79
2022-08-28T19:47:44.770Z,55.99
2022-08-28T19:50:13.250Z,55.82
2022-08-28T19:52:46.102Z,56.00
2022-08-28T19:55:19.546Z,55.93
2022-08-28T19:57:47.972Z,56.07
2022-08-28T20:00:18.164Z,56.29
2022-08-28T20:02:46.593Z,55.96
2022-08-28T20:05:14.477Z,56.12
2022-08-28T20:07:41.740Z,56.18
2022-08-28T20:10:10.194Z,55.93
2022-08-28T20:12:37.607Z,56.10
2022-08-28T20:15:09.036Z,56.35
2022-08-28T20:17:43.932Z,56.35
2022-08-28T20:20:23.707Z,56.31
2022-08-28T20:22:54.014Z,56.66
2022-08-28T20:25:21.949Z,56.71
2022-08-28T20:27:49.504Z,56.41
2022-08-28T20:30:17.211Z,56.64
2022-08-28T20:32:44.622Z,56.54
2022-08-28T20:35:12.968Z,56.38
2022-08-28T20:37:45.382Z,56.60
2022-08-28T20:40:16.746Z,56.52
2022-08-28T20:42:44.862Z,56.75
2022-08-28T20:45:13.420Z,56.68
2022-08-28T20:47:40.880Z,56.86
2022-08-28T20:50:08.828Z,56.96
2022-08-28T20:52:36.110Z,57.03
2022-08-28T20:55:04.503Z,57.63
2022-08-28T20:57:32.349Z,57.72
2022-08-28T21:00:05.296Z,57.74
2022-08-28T21:02:33.599Z,57.61
2022-08-28T21:05:01.377Z,57.89
2022-08-28T21:07:29.097Z,57.78
2022-08-28T21:10:05.108Z,58.33
2022-08-28T21:12:38.876Z,58.43
2022-08-28T21:15:08.624Z,58.10
2022-08-28T21:17:40.478Z,58.57
2022-08-28T21:20:10.963Z,58.55
2022-08-28T21:22:38.515Z,58.02
2022-08-28T21:25:10.793Z,58.23
2022-08-28T21:27:38.571Z,58.59
2022-08-28T21:30:07.289Z,58.92
2022-08-28T21:32:35.424Z,59.10
2022-08-28T21:35:05.158Z,58.40
2022-08-28T21:37:32.544Z,58.84
2022-08-28T21:40:00.416Z,59.47
2022-08-28T21:42:28.502Z,60.05
2022-08-28T21:44:55.997Z,59.98
2022-08-28T21:47:24.328Z,60.36
2022-08-28T21:49:55.189Z,60.82
2022-08-28T21:52:25.747Z,61.49
2022-08-28T21:55:01.467Z,61.75
2022-08-28T21:57:29.642Z,61.90
2022-08-28T21:59:57.386Z,62.48
2022-08-28T22:02:25.071Z,61.98
2022-08-28T22:04:53.118Z,62.76
2022-08-28T22:07:20.633Z,62.68
2022-08-28T22:09:49.958Z,62.77
2022-08-28T22:12:17.840Z,60.77
2022-08-28T22:14:45.149Z,61.11
2022-08-28T22:17:12.653Z,61.18
2022-08-28T22:19:40.966Z,61.56
2022-08-28T22:22:09.108Z,61.64
2022-08-28T22:24:36.918Z,63.79
2022-08-28T22:27:05.041Z,63.95
2022-08-28T22:29:32.815Z,64.78
2022-08-28T22:32:01.739Z,64.66
2022-08-28T22:34:40.282Z,64.65
2022-08-28T22:37:08.378Z,65.07
2022-08-28T22:39:36.003Z,65.38
2022-08-28T22:42:03.779Z,65.46
2022-08-28T22:44:31.042Z,66.37
2022-08-28T22:46:58.718Z,66.27
2022-08-28T22:49:26.034Z,66.89
2022-08-28T22:51:53.501Z,67.24
2022-08-28T22:54:21.156Z,67.86
2022-08-28T22:56:48.937Z,67.88
2022-08-28T22:59:16.292Z,68.47
2022-08-28T23:01:43.866Z,69.63
2022-08-28T23:04:11.402Z,70.65
2022-08-28T23:06:38.784Z,70.12
2022-08-28T23:09:07.465Z,69.96
2022-08-28T23:11:35.972Z,70.33
2022-08-28T23:14:05.058Z,70.43
2022-08-28T23:16:33.230Z,71.06
2022-08-28T23:19:08.866Z,71.21
2022-08-28T23:21:43.481Z,71.94
2022-08-28T23:24:15.581Z,71.41
2022-08-28T23:26:44.953Z,72.51
2022-08-28T23:29:12.483Z,72.42
2022-08-28T23:31:39.836Z,72.96
2022-08-28T23:34:07.864Z,72.91
2022-08-28T23:36:36.807Z,73.30
2022-08-28T23:39:07.181Z,73.71
2022-08-28T23:41:34.627Z,73.47
2022-08-28T23:44:07.812Z,73.56
2022-08-28T23:46:41.587Z,73.67
2022-08-28T23:49:10.627Z,73.77
2022-08-28T23:51:39.316Z,73.87
2022-08-28T23:54:07.596Z,73.49
2022-08-28T23:56:35.528Z,73.90
2022-08-28T23:59:04.249Z,74.26
